Linda Fortune — 3FOW6 — position and weather

sailwx.info

Track history (hours):
 
Tides and Currents Weather Stations Pressure Air Temp Water Temp Dewpoint Dewpoint Depression Visibility Wind Speed Wind Dir Waves Ship Positions

Linda Fortune

Last reported at 2015-Jun-25 02:10 UTC. Time now 2015-Jul-04 19:04 UTC.
Position N 01°12' E 103°35'.
Warning: this ship's position is 9 days out of date.

Length 281 m; draft 17.9 m.

Type: Cargo ship. MMSI: 352793000.

Date/timePositionNaut miles runAvg speedWind from/ knotsBaromVisibWave heightAir tempDewpointWater temp
2015-Jun-25 02:10N 01°12' E 103°35'711.0
2015-Jun-25 01:33N 01°10' E 103°41'9 9.3
2015-Jun-25 00:33N 01°12' E 103°51'9 8.6
2015-Jun-24 23:33N 01°15' E 103°58'5 4.2
2015-Jun-24 22:22N 01°17' E 104°03'0 0.0
2015-Jun-24 21:31N 01°17' E 104°03'0 0.0
2015-Jun-24 20:31N 01°17' E 104°03'0 0.1
2015-Jun-24 19:10N 01°17' E 104°03'0 0.2
2015-Jun-24 18:31N 01°18' E 104°03'0 0.1
2015-Jun-24 17:31N 01°18' E 104°03'0 0.1
2015-Jun-24 16:28N 01°17' E 104°03'0 0.0
2015-Jun-24 15:25N 01°17' E 104°03'0 0.0
2015-Jun-24 14:22N 01°17' E 104°03'0 0.1
2015-Jun-24 13:25N 01°17' E 104°03'0 0.0
2015-Jun-24 12:10N 01°17' E 104°03'0 0.1
2015-Jun-24 11:28N 01°17' E 104°03'0 0.0
2015-Jun-24 10:31N 01°17' E 104°03'0 0.1
2015-Jun-24 09:31N 01°17' E 104°03'0 0.1
2015-Jun-24 08:25N 01°17' E 104°03'0 0.1
2015-Jun-24 07:25N 01°17' E 104°03'0 0.1
2015-Jun-24 06:25N 01°17' E 104°03'0 0.1
2015-Jun-24 04:31N 01°17' E 104°03'0 0.0
2015-Jun-24 03:31N 01°17' E 104°03'0 0.0
2015-Jun-24 02:31N 01°17' E 104°03'0 0.0
2015-Jun-24 01:28N 01°17' E 104°03'0 0.0
2015-Jun-24 00:33N 01°17' E 104°03'8 5.8
2015-Jun-23 23:10N 01°17' E 104°11'  
2015-Jun-20 23:08S 04°47' E 113°41'1011.3
2015-Jun-20 22:17S 04°48' E 113°50'2910.8
2015-Jun-20 19:33S 04°45' E 114°20'3310.9
2015-Jun-20 16:33S 04°38' E 114°52'  
Track history (hours):
 
Tides and Currents Weather Stations Pressure Air Temp Water Temp Dewpoint Dewpoint Depression Visibility Wind Speed Wind Dir Waves Ship Positions

Linda Fortune

Last reported at 2015-Jun-25 02:10 UTC. Time now 2015-Jul-04 19:04 UTC.
Position N 01°12' E 103°35'.
Warning: this ship's position is 9 days out of date.

Length 281 m; draft 17.9 m.

Type: Cargo ship. MMSI: 352793000.

Date/timePositionNaut miles runAvg speedWind from/ knotsBaromVisibWave heightAir tempDewpointWater temp
2015-Jun-25 02:10N 01°12' E 103°35'711.0
2015-Jun-25 01:33N 01°10' E 103°41'9 9.3
2015-Jun-25 00:33N 01°12' E 103°51'9 8.6
2015-Jun-24 23:33N 01°15' E 103°58'5 4.2
2015-Jun-24 22:22N 01°17' E 104°03'0 0.0
2015-Jun-24 21:31N 01°17' E 104°03'0 0.0
2015-Jun-24 20:31N 01°17' E 104°03'0 0.1
2015-Jun-24 19:10N 01°17' E 104°03'0 0.2
2015-Jun-24 18:31N 01°18' E 104°03'0 0.1
2015-Jun-24 17:31N 01°18' E 104°03'0 0.1
2015-Jun-24 16:28N 01°17' E 104°03'0 0.0
2015-Jun-24 15:25N 01°17' E 104°03'0 0.0
2015-Jun-24 14:22N 01°17' E 104°03'0 0.1
2015-Jun-24 13:25N 01°17' E 104°03'0 0.0
2015-Jun-24 12:10N 01°17' E 104°03'0 0.1
2015-Jun-24 11:28N 01°17' E 104°03'0 0.0
2015-Jun-24 10:31N 01°17' E 104°03'0 0.1
2015-Jun-24 09:31N 01°17' E 104°03'0 0.1
2015-Jun-24 08:25N 01°17' E 104°03'0 0.1
2015-Jun-24 07:25N 01°17' E 104°03'0 0.1
2015-Jun-24 06:25N 01°17' E 104°03'0 0.1
2015-Jun-24 04:31N 01°17' E 104°03'0 0.0
2015-Jun-24 03:31N 01°17' E 104°03'0 0.0
2015-Jun-24 02:31N 01°17' E 104°03'0 0.0
2015-Jun-24 01:28N 01°17' E 104°03'0 0.0
2015-Jun-24 00:33N 01°17' E 104°03'8 5.8
2015-Jun-23 23:10N 01°17' E 104°11'  
2015-Jun-20 23:08S 04°47' E 113°41'1011.3
2015-Jun-20 22:17S 04°48' E 113°50'2910.8
2015-Jun-20 19:33S 04°45' E 114°20'3310.9
2015-Jun-20 16:33S 04°38' E 114°52'  

Dump ship's entire track history